sensor_id;sensor_type;location;lat;lon;timestamp;P1;durP1;ratioP1;P2;durP2;ratioP2
22644;SDS011;11489;50.834;6.752;2023-07-31T00:00:24;5.45;;;2.95;;
22644;SDS011;11489;50.834;6.752;2023-07-31T00:02:51;6.28;;;3.00;;
22644;SDS011;11489;50.834;6.752;2023-07-31T00:05:17;5.88;;;2.58;;
22644;SDS011;11489;50.834;6.752;2023-07-31T00:07:43;7.30;;;2.88;;
22644;SDS011;11489;50.834;6.752;2023-07-31T00:10:09;4.65;;;2.50;;
22644;SDS011;11489;50.834;6.752;2023-07-31T00:12:34;5.72;;;2.67;;
22644;SDS011;11489;50.834;6.752;2023-07-31T00:15:00;6.70;;;2.30;;
22644;SDS011;11489;50.834;6.752;2023-07-31T00:17:27;4.38;;;2.38;;
22644;SDS011;11489;50.834;6.752;2023-07-31T00:19:53;5.53;;;2.30;;
22644;SDS011;11489;50.834;6.752;2023-07-31T00:22:18;5.07;;;2.30;;
22644;SDS011;11489;50.834;6.752;2023-07-31T00:24:44;4.20;;;2.10;;
22644;SDS011;11489;50.834;6.752;2023-07-31T00:27:10;4.25;;;2.28;;
22644;SDS011;11489;50.834;6.752;2023-07-31T00:29:35;6.95;;;2.25;;
22644;SDS011;11489;50.834;6.752;2023-07-31T00:32:01;3.55;;;2.33;;
22644;SDS011;11489;50.834;6.752;2023-07-31T00:34:26;4.30;;;2.13;;
22644;SDS011;11489;50.834;6.752;2023-07-31T00:36:52;5.15;;;2.15;;
22644;SDS011;11489;50.834;6.752;2023-07-31T00:39:18;4.68;;;2.30;;
22644;SDS011;11489;50.834;6.752;2023-07-31T00:41:44;4.10;;;2.00;;
22644;SDS011;11489;50.834;6.752;2023-07-31T00:44:10;5.45;;;2.30;;
22644;SDS011;11489;50.834;6.752;2023-07-31T00:46:36;6.65;;;2.33;;
22644;SDS011;11489;50.834;6.752;2023-07-31T00:49:02;4.28;;;2.38;;
22644;SDS011;11489;50.834;6.752;2023-07-31T00:51:28;4.55;;;2.30;;
22644;SDS011;11489;50.834;6.752;2023-07-31T00:53:54;5.53;;;2.40;;
22644;SDS011;11489;50.834;6.752;2023-07-31T00:56:21;7.05;;;2.15;;
22644;SDS011;11489;50.834;6.752;2023-07-31T00:58:47;5.50;;;2.08;;
22644;SDS011;11489;50.834;6.752;2023-07-31T01:01:13;4.72;;;2.50;;
22644;SDS011;11489;50.834;6.752;2023-07-31T01:03:39;5.30;;;2.33;;
22644;SDS011;11489;50.834;6.752;2023-07-31T01:08:44;4.00;;;2.30;;
22644;SDS011;11489;50.834;6.752;2023-07-31T01:11:14;4.72;;;2.65;;
22644;SDS011;11489;50.834;6.752;2023-07-31T01:13:44;4.85;;;2.20;;
22644;SDS011;11489;50.834;6.752;2023-07-31T01:16:10;4.57;;;2.20;;
22644;SDS011;11489;50.834;6.752;2023-07-31T01:18:36;4.25;;;2.30;;
22644;SDS011;11489;50.834;6.752;2023-07-31T01:21:03;4.20;;;2.20;;
22644;SDS011;11489;50.834;6.752;2023-07-31T01:26:28;3.33;;;2.05;;
22644;SDS011;11489;50.834;6.752;2023-07-31T01:31:46;4.90;;;2.25;;
22644;SDS011;11489;50.834;6.752;2023-07-31T01:34:15;4.97;;;2.10;;
22644;SDS011;11489;50.834;6.752;2023-07-31T01:36:43;4.13;;;2.20;;
22644;SDS011;11489;50.834;6.752;2023-07-31T01:39:09;5.35;;;2.20;;
22644;SDS011;11489;50.834;6.752;2023-07-31T01:41:34;3.83;;;2.08;;
22644;SDS011;11489;50.834;6.752;2023-07-31T01:44:00;4.35;;;2.47;;
22644;SDS011;11489;50.834;6.752;2023-07-31T01:46:26;5.43;;;2.25;;
22644;SDS011;11489;50.834;6.752;2023-07-31T01:48:51;5.43;;;2.10;;
22644;SDS011;11489;50.834;6.752;2023-07-31T01:51:17;5.20;;;2.20;;
22644;SDS011;11489;50.834;6.752;2023-07-31T01:53:42;4.10;;;2.33;;
22644;SDS011;11489;50.834;6.752;2023-07-31T01:56:08;7.00;;;3.13;;
22644;SDS011;11489;50.834;6.752;2023-07-31T01:58:34;5.10;;;2.13;;
22644;SDS011;11489;50.834;6.752;2023-07-31T02:00:59;5.63;;;2.50;;
22644;SDS011;11489;50.834;6.752;2023-07-31T02:03:25;6.20;;;2.45;;
22644;SDS011;11489;50.834;6.752;2023-07-31T02:05:51;4.82;;;2.50;;
22644;SDS011;11489;50.834;6.752;2023-07-31T02:08:16;6.43;;;2.38;;
22644;SDS011;11489;50.834;6.752;2023-07-31T02:10:42;7.07;;;2.88;;
22644;SDS011;11489;50.834;6.752;2023-07-31T02:13:08;5.63;;;2.42;;
22644;SDS011;11489;50.834;6.752;2023-07-31T02:15:34;5.85;;;2.50;;
22644;SDS011;11489;50.834;6.752;2023-07-31T02:17:59;5.25;;;2.55;;
22644;SDS011;11489;50.834;6.752;2023-07-31T02:20:25;4.15;;;2.60;;
22644;SDS011;11489;50.834;6.752;2023-07-31T02:22:51;3.75;;;2.30;;
22644;SDS011;11489;50.834;6.752;2023-07-31T02:25:16;4.57;;;2.35;;
22644;SDS011;11489;50.834;6.752;2023-07-31T02:27:42;8.93;;;2.83;;
22644;SDS011;11489;50.834;6.752;2023-07-31T02:30:08;6.15;;;2.63;;
22644;SDS011;11489;50.834;6.752;2023-07-31T02:32:34;6.65;;;2.20;;
22644;SDS011;11489;50.834;6.752;2023-07-31T02:34:59;6.97;;;2.67;;
22644;SDS011;11489;50.834;6.752;2023-07-31T02:37:25;4.15;;;2.40;;
22644;SDS011;11489;50.834;6.752;2023-07-31T02:39:51;5.47;;;2.50;;
22644;SDS011;11489;50.834;6.752;2023-07-31T02:42:17;4.72;;;2.38;;
22644;SDS011;11489;50.834;6.752;2023-07-31T02:44:42;6.70;;;2.40;;
22644;SDS011;11489;50.834;6.752;2023-07-31T02:47:08;4.68;;;2.92;;
22644;SDS011;11489;50.834;6.752;2023-07-31T02:49:34;4.78;;;2.40;;
22644;SDS011;11489;50.834;6.752;2023-07-31T02:51:59;6.47;;;2.55;;
22644;SDS011;11489;50.834;6.752;2023-07-31T02:54:25;4.55;;;2.70;;
22644;SDS011;11489;50.834;6.752;2023-07-31T02:56:51;6.78;;;2.65;;
22644;SDS011;11489;50.834;6.752;2023-07-31T02:59:16;7.18;;;2.88;;
22644;SDS011;11489;50.834;6.752;2023-07-31T03:01:42;5.53;;;2.78;;
22644;SDS011;11489;50.834;6.752;2023-07-31T03:04:08;7.60;;;2.60;;
22644;SDS011;11489;50.834;6.752;2023-07-31T03:06:33;5.68;;;2.80;;
22644;SDS011;11489;50.834;6.752;2023-07-31T03:08:59;5.93;;;3.10;;
22644;SDS011;11489;50.834;6.752;2023-07-31T03:11:25;3.88;;;2.38;;
22644;SDS011;11489;50.834;6.752;2023-07-31T03:13:50;4.10;;;2.75;;
22644;SDS011;11489;50.834;6.752;2023-07-31T03:16:16;5.90;;;2.83;;
22644;SDS011;11489;50.834;6.752;2023-07-31T03:18:41;5.80;;;2.70;;
22644;SDS011;11489;50.834;6.752;2023-07-31T03:21:07;7.53;;;2.92;;
22644;SDS011;11489;50.834;6.752;2023-07-31T03:23:33;5.47;;;2.90;;
22644;SDS011;11489;50.834;6.752;2023-07-31T03:25:59;5.50;;;2.90;;
22644;SDS011;11489;50.834;6.752;2023-07-31T03:28:28;4.32;;;2.78;;
22644;SDS011;11489;50.834;6.752;2023-07-31T03:30:54;6.35;;;2.80;;
22644;SDS011;11489;50.834;6.752;2023-07-31T03:33:20;5.22;;;3.03;;
22644;SDS011;11489;50.834;6.752;2023-07-31T03:35:45;5.15;;;2.85;;
22644;SDS011;11489;50.834;6.752;2023-07-31T03:38:11;6.20;;;2.92;;
22644;SDS011;11489;50.834;6.752;2023-07-31T03:40:37;6.03;;;2.88;;
22644;SDS011;11489;50.834;6.752;2023-07-31T03:43:02;9.68;;;3.10;;
22644;SDS011;11489;50.834;6.752;2023-07-31T03:45:28;4.88;;;2.92;;
22644;SDS011;11489;50.834;6.752;2023-07-31T03:47:54;4.72;;;2.90;;
22644;SDS011;11489;50.834;6.752;2023-07-31T03:50:20;6.80;;;3.00;;
22644;SDS011;11489;50.834;6.752;2023-07-31T03:52:45;5.35;;;3.05;;
22644;SDS011;11489;50.834;6.752;2023-07-31T03:55:11;7.43;;;2.90;;
22644;SDS011;11489;50.834;6.752;2023-07-31T03:57:37;5.20;;;3.10;;
22644;SDS011;11489;50.834;6.752;2023-07-31T04:00:03;6.13;;;3.20;;
22644;SDS011;11489;50.834;6.752;2023-07-31T04:02:29;5.90;;;3.17;;
22644;SDS011;11489;50.834;6.752;2023-07-31T04:04:55;6.70;;;3.03;;
22644;SDS011;11489;50.834;6.752;2023-07-31T04:07:20;5.55;;;3.10;;
22644;SDS011;11489;50.834;6.752;2023-07-31T04:09:46;5.68;;;2.88;;
22644;SDS011;11489;50.834;6.752;2023-07-31T04:12:11;4.93;;;3.10;;
22644;SDS011;11489;50.834;6.752;2023-07-31T04:14:37;5.28;;;2.97;;
22644;SDS011;11489;50.834;6.752;2023-07-31T04:17:03;4.75;;;3.00;;
22644;SDS011;11489;50.834;6.752;2023-07-31T04:19:28;5.25;;;2.85;;
22644;SDS011;11489;50.834;6.752;2023-07-31T04:21:54;5.63;;;2.97;;
22644;SDS011;11489;50.834;6.752;2023-07-31T04:24:19;5.80;;;3.22;;
22644;SDS011;11489;50.834;6.752;2023-07-31T04:26:52;3.72;;;2.95;;
22644;SDS011;11489;50.834;6.752;2023-07-31T04:29:18;5.43;;;3.20;;
22644;SDS011;11489;50.834;6.752;2023-07-31T04:31:45;4.40;;;2.75;;
22644;SDS011;11489;50.834;6.752;2023-07-31T04:34:10;5.35;;;3.17;;
22644;SDS011;11489;50.834;6.752;2023-07-31T04:36:39;6.88;;;3.40;;
22644;SDS011;11489;50.834;6.752;2023-07-31T04:39:05;6.15;;;3.42;;
22644;SDS011;11489;50.834;6.752;2023-07-31T04:41:30;4.30;;;2.72;;
22644;SDS011;11489;50.834;6.752;2023-07-31T04:43:56;5.00;;;2.88;;
22644;SDS011;11489;50.834;6.752;2023-07-31T04:46:22;5.63;;;3.30;;
22644;SDS011;11489;50.834;6.752;2023-07-31T04:48:47;7.18;;;3.20;;
22644;SDS011;11489;50.834;6.752;2023-07-31T04:51:13;5.45;;;3.10;;
22644;SDS011;11489;50.834;6.752;2023-07-31T04:53:38;5.65;;;3.05;;
22644;SDS011;11489;50.834;6.752;2023-07-31T04:56:04;8.63;;;3.22;;
22644;SDS011;11489;50.834;6.752;2023-07-31T04:58:30;5.20;;;2.78;;
22644;SDS011;11489;50.834;6.752;2023-07-31T05:00:55;6.85;;;3.15;;
22644;SDS011;11489;50.834;6.752;2023-07-31T05:03:21;5.78;;;3.10;;
22644;SDS011;11489;50.834;6.752;2023-07-31T05:05:47;4.40;;;2.65;;
22644;SDS011;11489;50.834;6.752;2023-07-31T05:08:12;3.55;;;2.47;;
22644;SDS011;11489;50.834;6.752;2023-07-31T05:10:38;3.78;;;2.60;;
22644;SDS011;11489;50.834;6.752;2023-07-31T05:13:04;5.78;;;2.80;;
22644;SDS011;11489;50.834;6.752;2023-07-31T05:15:30;4.10;;;2.67;;
22644;SDS011;11489;50.834;6.752;2023-07-31T05:17:56;4.32;;;2.80;;
22644;SDS011;11489;50.834;6.752;2023-07-31T05:20:21;4.03;;;2.88;;
22644;SDS011;11489;50.834;6.752;2023-07-31T05:22:47;3.95;;;2.60;;
22644;SDS011;11489;50.834;6.752;2023-07-31T05:25:13;4.30;;;2.63;;
22644;SDS011;11489;50.834;6.752;2023-07-31T05:27:38;4.70;;;2.47;;
22644;SDS011;11489;50.834;6.752;2023-07-31T05:30:04;5.20;;;2.85;;
22644;SDS011;11489;50.834;6.752;2023-07-31T05:32:31;5.13;;;3.05;;
22644;SDS011;11489;50.834;6.752;2023-07-31T05:34:57;6.10;;;2.80;;
22644;SDS011;11489;50.834;6.752;2023-07-31T05:37:23;3.45;;;2.80;;
22644;SDS011;11489;50.834;6.752;2023-07-31T05:39:48;4.78;;;2.70;;
22644;SDS011;11489;50.834;6.752;2023-07-31T05:42:14;4.15;;;2.70;;
22644;SDS011;11489;50.834;6.752;2023-07-31T05:44:40;3.42;;;2.65;;
22644;SDS011;11489;50.834;6.752;2023-07-31T05:47:05;5.35;;;2.90;;
22644;SDS011;11489;50.834;6.752;2023-07-31T05:49:31;5.47;;;2.90;;
22644;SDS011;11489;50.834;6.752;2023-07-31T05:51:57;3.90;;;2.75;;
22644;SDS011;11489;50.834;6.752;2023-07-31T05:54:22;5.85;;;2.60;;
22644;SDS011;11489;50.834;6.752;2023-07-31T05:56:48;4.72;;;3.00;;
22644;SDS011;11489;50.834;6.752;2023-07-31T05:59:14;4.53;;;2.45;;
22644;SDS011;11489;50.834;6.752;2023-07-31T06:01:39;4.38;;;2.53;;
22644;SDS011;11489;50.834;6.752;2023-07-31T06:04:05;6.18;;;2.90;;
22644;SDS011;11489;50.834;6.752;2023-07-31T06:06:31;3.92;;;2.58;;
22644;SDS011;11489;50.834;6.752;2023-07-31T06:08:56;3.92;;;2.50;;
22644;SDS011;11489;50.834;6.752;2023-07-31T06:11:22;4.90;;;3.00;;
22644;SDS011;11489;50.834;6.752;2023-07-31T06:13:48;7.97;;;2.63;;
22644;SDS011;11489;50.834;6.752;2023-07-31T06:16:15;4.63;;;2.78;;
22644;SDS011;11489;50.834;6.752;2023-07-31T06:18:42;5.28;;;2.80;;
22644;SDS011;11489;50.834;6.752;2023-07-31T06:21:08;5.25;;;3.03;;
22644;SDS011;11489;50.834;6.752;2023-07-31T06:23:34;6.63;;;2.85;;
22644;SDS011;11489;50.834;6.752;2023-07-31T06:26:00;5.13;;;2.50;;
22644;SDS011;11489;50.834;6.752;2023-07-31T06:28:30;3.67;;;2.42;;
22644;SDS011;11489;50.834;6.752;2023-07-31T06:30:59;3.80;;;2.40;;
22644;SDS011;11489;50.834;6.752;2023-07-31T06:33:26;5.43;;;3.05;;
22644;SDS011;11489;50.834;6.752;2023-07-31T06:35:52;4.93;;;3.00;;
22644;SDS011;11489;50.834;6.752;2023-07-31T06:38:25;5.05;;;2.70;;
22644;SDS011;11489;50.834;6.752;2023-07-31T06:40:52;4.32;;;2.42;;
22644;SDS011;11489;50.834;6.752;2023-07-31T06:43:18;4.13;;;2.63;;
22644;SDS011;11489;50.834;6.752;2023-07-31T06:45:43;5.40;;;2.85;;
22644;SDS011;11489;50.834;6.752;2023-07-31T06:48:09;5.97;;;2.88;;
22644;SDS011;11489;50.834;6.752;2023-07-31T06:50:35;5.45;;;3.40;;
22644;SDS011;11489;50.834;6.752;2023-07-31T06:53:02;5.50;;;2.70;;
22644;SDS011;11489;50.834;6.752;2023-07-31T06:55:27;4.60;;;2.97;;
22644;SDS011;11489;50.834;6.752;2023-07-31T06:57:54;4.43;;;2.78;;
22644;SDS011;11489;50.834;6.752;2023-07-31T07:00:20;5.35;;;2.80;;
22644;SDS011;11489;50.834;6.752;2023-07-31T07:02:47;5.72;;;3.00;;
22644;SDS011;11489;50.834;6.752;2023-07-31T07:05:13;4.43;;;2.80;;
22644;SDS011;11489;50.834;6.752;2023-07-31T07:07:40;5.03;;;2.83;;
22644;SDS011;11489;50.834;6.752;2023-07-31T07:10:06;5.45;;;2.90;;
22644;SDS011;11489;50.834;6.752;2023-07-31T07:12:32;5.57;;;2.80;;
22644;SDS011;11489;50.834;6.752;2023-07-31T07:15:01;5.38;;;2.58;;
22644;SDS011;11489;50.834;6.752;2023-07-31T07:17:28;5.75;;;2.90;;
22644;SDS011;11489;50.834;6.752;2023-07-31T07:19:57;4.22;;;2.22;;
22644;SDS011;11489;50.834;6.752;2023-07-31T07:22:24;3.50;;;2.42;;
22644;SDS011;11489;50.834;6.752;2023-07-31T07:24:50;4.63;;;2.72;;
22644;SDS011;11489;50.834;6.752;2023-07-31T07:27:16;6.15;;;2.70;;
22644;SDS011;11489;50.834;6.752;2023-07-31T07:29:42;5.55;;;2.60;;
22644;SDS011;11489;50.834;6.752;2023-07-31T07:32:07;3.22;;;2.25;;
22644;SDS011;11489;50.834;6.752;2023-07-31T07:34:33;4.38;;;2.33;;
22644;SDS011;11489;50.834;6.752;2023-07-31T07:36:59;6.72;;;3.00;;
22644;SDS011;11489;50.834;6.752;2023-07-31T07:39:24;4.03;;;2.38;;
22644;SDS011;11489;50.834;6.752;2023-07-31T07:41:50;4.82;;;2.28;;
22644;SDS011;11489;50.834;6.752;2023-07-31T07:44:16;5.10;;;2.35;;
22644;SDS011;11489;50.834;6.752;2023-07-31T07:46:41;3.70;;;2.15;;
22644;SDS011;11489;50.834;6.752;2023-07-31T07:49:08;5.00;;;2.60;;
22644;SDS011;11489;50.834;6.752;2023-07-31T07:51:34;3.47;;;2.00;;
22644;SDS011;11489;50.834;6.752;2023-07-31T07:53:59;5.85;;;2.20;;
22644;SDS011;11489;50.834;6.752;2023-07-31T07:56:25;5.32;;;2.20;;
22644;SDS011;11489;50.834;6.752;2023-07-31T07:58:52;2.97;;;1.80;;
22644;SDS011;11489;50.834;6.752;2023-07-31T08:01:18;4.65;;;1.90;;
22644;SDS011;11489;50.834;6.752;2023-07-31T08:03:44;2.28;;;1.83;;
22644;SDS011;11489;50.834;6.752;2023-07-31T08:06:10;2.45;;;1.88;;
22644;SDS011;11489;50.834;6.752;2023-07-31T08:08:36;2.33;;;1.80;;
22644;SDS011;11489;50.834;6.752;2023-07-31T08:11:02;2.42;;;1.70;;
22644;SDS011;11489;50.834;6.752;2023-07-31T08:13:28;2.78;;;1.80;;
22644;SDS011;11489;50.834;6.752;2023-07-31T08:15:54;3.00;;;1.98;;
22644;SDS011;11489;50.834;6.752;2023-07-31T08:18:20;2.75;;;1.70;;
22644;SDS011;11489;50.834;6.752;2023-07-31T08:20:45;3.50;;;1.80;;
22644;SDS011;11489;50.834;6.752;2023-07-31T08:23:11;3.47;;;1.70;;
22644;SDS011;11489;50.834;6.752;2023-07-31T08:25:37;2.92;;;1.80;;
22644;SDS011;11489;50.834;6.752;2023-07-31T08:28:04;3.20;;;2.10;;
22644;SDS011;11489;50.834;6.752;2023-07-31T08:30:30;2.58;;;1.88;;
22644;SDS011;11489;50.834;6.752;2023-07-31T08:32:56;2.72;;;1.80;;
22644;SDS011;11489;50.834;6.752;2023-07-31T08:35:24;4.25;;;2.30;;
22644;SDS011;11489;50.834;6.752;2023-07-31T08:37:50;3.95;;;2.00;;
22644;SDS011;11489;50.834;6.752;2023-07-31T08:40:16;2.78;;;1.70;;
22644;SDS011;11489;50.834;6.752;2023-07-31T08:42:45;3.72;;;2.00;;
22644;SDS011;11489;50.834;6.752;2023-07-31T08:45:13;4.68;;;1.67;;
22644;SDS011;11489;50.834;6.752;2023-07-31T08:47:46;3.22;;;1.90;;
22644;SDS011;11489;50.834;6.752;2023-07-31T08:50:14;3.60;;;1.70;;
22644;SDS011;11489;50.834;6.752;2023-07-31T08:52:41;2.72;;;1.73;;
22644;SDS011;11489;50.834;6.752;2023-07-31T08:55:07;2.25;;;1.70;;
22644;SDS011;11489;50.834;6.752;2023-07-31T08:57:37;3.10;;;1.70;;
22644;SDS011;11489;50.834;6.752;2023-07-31T09:00:07;3.50;;;1.90;;
22644;SDS011;11489;50.834;6.752;2023-07-31T09:02:35;2.83;;;1.98;;
22644;SDS011;11489;50.834;6.752;2023-07-31T09:05:06;3.65;;;1.80;;
22644;SDS011;11489;50.834;6.752;2023-07-31T09:07:33;2.30;;;1.60;;
22644;SDS011;11489;50.834;6.752;2023-07-31T09:10:01;3.72;;;1.80;;
22644;SDS011;11489;50.834;6.752;2023-07-31T09:12:27;2.42;;;1.65;;
22644;SDS011;11489;50.834;6.752;2023-07-31T09:14:53;2.40;;;1.90;;
22644;SDS011;11489;50.834;6.752;2023-07-31T09:17:29;3.50;;;1.70;;
22644;SDS011;11489;50.834;6.752;2023-07-31T09:20:18;4.50;;;1.85;;
22644;SDS011;11489;50.834;6.752;2023-07-31T09:22:45;3.65;;;1.98;;
22644;SDS011;11489;50.834;6.752;2023-07-31T09:25:18;1.92;;;1.63;;
22644;SDS011;11489;50.834;6.752;2023-07-31T09:30:18;5.90;;;1.50;;
22644;SDS011;11489;50.834;6.752;2023-07-31T09:32:45;2.92;;;1.65;;
22644;SDS011;11489;50.834;6.752;2023-07-31T09:35:13;2.78;;;1.80;;
22644;SDS011;11489;50.834;6.752;2023-07-31T09:37:52;3.13;;;1.70;;
22644;SDS011;11489;50.834;6.752;2023-07-31T09:40:33;2.53;;;1.70;;
22644;SDS011;11489;50.834;6.752;2023-07-31T09:43:02;2.28;;;1.73;;
22644;SDS011;11489;50.834;6.752;2023-07-31T09:45:29;2.72;;;1.95;;
22644;SDS011;11489;50.834;6.752;2023-07-31T09:47:56;2.13;;;1.58;;
22644;SDS011;11489;50.834;6.752;2023-07-31T09:50:22;2.45;;;1.90;;
22644;SDS011;11489;50.834;6.752;2023-07-31T09:52:50;3.00;;;2.10;;
22644;SDS011;11489;50.834;6.752;2023-07-31T09:55:17;4.68;;;2.05;;
22644;SDS011;11489;50.834;6.752;2023-07-31T09:57:45;5.70;;;2.00;;
22644;SDS011;11489;50.834;6.752;2023-07-31T10:00:12;2.85;;;2.03;;
22644;SDS011;11489;50.834;6.752;2023-07-31T10:02:39;3.40;;;2.10;;
22644;SDS011;11489;50.834;6.752;2023-07-31T10:05:05;2.50;;;2.10;;
22644;SDS011;11489;50.834;6.752;2023-07-31T10:07:34;4.80;;;2.10;;
22644;SDS011;11489;50.834;6.752;2023-07-31T10:10:07;4.10;;;2.45;;
22644;SDS011;11489;50.834;6.752;2023-07-31T10:12:36;3.35;;;2.22;;
22644;SDS011;11489;50.834;6.752;2023-07-31T10:15:03;2.38;;;1.77;;
22644;SDS011;11489;50.834;6.752;2023-07-31T10:17:30;2.95;;;1.73;;
22644;SDS011;11489;50.834;6.752;2023-07-31T10:19:59;3.95;;;1.90;;
22644;SDS011;11489;50.834;6.752;2023-07-31T10:22:28;3.00;;;2.00;;
22644;SDS011;11489;50.834;6.752;2023-07-31T10:24:55;2.65;;;1.70;;
22644;SDS011;11489;50.834;6.752;2023-07-31T10:27:23;3.83;;;1.80;;
22644;SDS011;11489;50.834;6.752;2023-07-31T10:29:49;1.40;;;1.27;;
22644;SDS011;11489;50.834;6.752;2023-07-31T10:32:17;2.33;;;1.33;;
22644;SDS011;11489;50.834;6.752;2023-07-31T10:34:43;1.98;;;1.25;;
22644;SDS011;11489;50.834;6.752;2023-07-31T10:37:20;3.25;;;1.40;;
22644;SDS011;11489;50.834;6.752;2023-07-31T10:40:03;2.25;;;1.33;;
22644;SDS011;11489;50.834;6.752;2023-07-31T10:42:31;1.60;;;1.20;;
22644;SDS011;11489;50.834;6.752;2023-07-31T10:45:00;1.10;;;0.98;;
22644;SDS011;11489;50.834;6.752;2023-07-31T10:47:27;1.83;;;1.10;;
22644;SDS011;11489;50.834;6.752;2023-07-31T10:50:10;2.30;;;1.10;;
22644;SDS011;11489;50.834;6.752;2023-07-31T10:52:36;1.42;;;1.08;;
22644;SDS011;11489;50.834;6.752;2023-07-31T10:57:49;1.70;;;0.80;;
22644;SDS011;11489;50.834;6.752;2023-07-31T11:00:19;2.10;;;0.90;;
22644;SDS011;11489;50.834;6.752;2023-07-31T11:13:26;1.00;;;0.80;;
22644;SDS011;11489;50.834;6.752;2023-07-31T11:16:02;2.78;;;0.88;;
22644;SDS011;11489;50.834;6.752;2023-07-31T11:18:28;1.75;;;0.80;;
22644;SDS011;11489;50.834;6.752;2023-07-31T11:20:53;1.92;;;0.90;;
22644;SDS011;11489;50.834;6.752;2023-07-31T11:23:19;1.65;;;0.90;;
22644;SDS011;11489;50.834;6.752;2023-07-31T11:25:46;1.15;;;0.85;;
22644;SDS011;11489;50.834;6.752;2023-07-31T11:28:13;1.17;;;0.80;;
22644;SDS011;11489;50.834;6.752;2023-07-31T11:30:40;0.68;;;0.52;;
22644;SDS011;11489;50.834;6.752;2023-07-31T11:33:08;1.05;;;0.68;;
22644;SDS011;11489;50.834;6.752;2023-07-31T11:35:35;0.73;;;0.60;;
22644;SDS011;11489;50.834;6.752;2023-07-31T11:38:07;1.15;;;0.75;;
22644;SDS011;11489;50.834;6.752;2023-07-31T11:40:40;0.82;;;0.60;;
22644;SDS011;11489;50.834;6.752;2023-07-31T11:43:07;0.70;;;0.60;;
22644;SDS011;11489;50.834;6.752;2023-07-31T11:45:33;1.40;;;0.77;;
22644;SDS011;11489;50.834;6.752;2023-07-31T11:48:00;1.15;;;0.55;;
22644;SDS011;11489;50.834;6.752;2023-07-31T11:50:26;1.27;;;0.60;;
22644;SDS011;11489;50.834;6.752;2023-07-31T11:52:53;0.50;;;0.50;;
22644;SDS011;11489;50.834;6.752;2023-07-31T11:55:23;1.38;;;0.50;;
22644;SDS011;11489;50.834;6.752;2023-07-31T11:57:49;0.70;;;0.60;;
22644;SDS011;11489;50.834;6.752;2023-07-31T12:00:16;0.40;;;0.40;;
22644;SDS011;11489;50.834;6.752;2023-07-31T12:02:42;0.75;;;0.70;;
22644;SDS011;11489;50.834;6.752;2023-07-31T12:05:12;0.85;;;0.70;;
22644;SDS011;11489;50.834;6.752;2023-07-31T12:08:12;2.55;;;0.75;;
22644;SDS011;11489;50.834;6.752;2023-07-31T12:10:34;1.20;;;0.90;;
22644;SDS011;11489;50.834;6.752;2023-07-31T12:13:01;1.67;;;1.00;;
22644;SDS011;11489;50.834;6.752;2023-07-31T12:15:39;1.30;;;1.08;;
22644;SDS011;11489;50.834;6.752;2023-07-31T12:18:08;1.10;;;1.00;;
22644;SDS011;11489;50.834;6.752;2023-07-31T12:20:39;1.88;;;1.27;;
22644;SDS011;11489;50.834;6.752;2023-07-31T12:23:16;2.08;;;0.90;;
22644;SDS011;11489;50.834;6.752;2023-07-31T12:28:48;1.48;;;1.10;;
22644;SDS011;11489;50.834;6.752;2023-07-31T12:31:15;2.00;;;1.33;;
22644;SDS011;11489;50.834;6.752;2023-07-31T12:33:42;1.70;;;1.58;;
22644;SDS011;11489;50.834;6.752;2023-07-31T12:36:12;1.67;;;1.38;;
22644;SDS011;11489;50.834;6.752;2023-07-31T12:38:40;1.83;;;1.58;;
22644;SDS011;11489;50.834;6.752;2023-07-31T12:41:06;2.28;;;1.75;;
22644;SDS011;11489;50.834;6.752;2023-07-31T12:43:33;2.25;;;1.60;;
22644;SDS011;11489;50.834;6.752;2023-07-31T12:45:59;1.67;;;1.45;;
22644;SDS011;11489;50.834;6.752;2023-07-31T12:48:25;2.65;;;1.80;;
22644;SDS011;11489;50.834;6.752;2023-07-31T12:50:51;2.35;;;1.80;;
22644;SDS011;11489;50.834;6.752;2023-07-31T12:53:16;2.55;;;2.08;;
22644;SDS011;11489;50.834;6.752;2023-07-31T12:55:42;2.83;;;2.05;;
22644;SDS011;11489;50.834;6.752;2023-07-31T12:58:08;2.42;;;1.77;;
22644;SDS011;11489;50.834;6.752;2023-07-31T13:00:33;2.85;;;2.00;;
22644;SDS011;11489;50.834;6.752;2023-07-31T13:02:59;4.45;;;2.20;;
22644;SDS011;11489;50.834;6.752;2023-07-31T13:05:26;3.88;;;2.10;;
22644;SDS011;11489;50.834;6.752;2023-07-31T13:07:52;2.38;;;1.98;;
22644;SDS011;11489;50.834;6.752;2023-07-31T13:10:18;2.35;;;1.90;;
22644;SDS011;11489;50.834;6.752;2023-07-31T13:12:44;2.85;;;1.58;;
22644;SDS011;11489;50.834;6.752;2023-07-31T13:15:10;3.05;;;1.88;;
22644;SDS011;11489;50.834;6.752;2023-07-31T13:17:35;3.20;;;1.75;;
22644;SDS011;11489;50.834;6.752;2023-07-31T13:20:02;1.98;;;1.50;;
22644;SDS011;11489;50.834;6.752;2023-07-31T13:22:28;2.40;;;1.80;;
22644;SDS011;11489;50.834;6.752;2023-07-31T13:24:54;2.00;;;1.75;;
22644;SDS011;11489;50.834;6.752;2023-07-31T13:27:20;1.98;;;1.65;;
22644;SDS011;11489;50.834;6.752;2023-07-31T13:29:50;1.98;;;1.60;;
22644;SDS011;11489;50.834;6.752;2023-07-31T13:32:17;2.30;;;1.75;;
22644;SDS011;11489;50.834;6.752;2023-07-31T13:34:44;2.40;;;1.80;;
22644;SDS011;11489;50.834;6.752;2023-07-31T13:37:11;2.60;;;1.98;;
22644;SDS011;11489;50.834;6.752;2023-07-31T13:39:37;1.75;;;1.55;;
22644;SDS011;11489;50.834;6.752;2023-07-31T13:42:03;2.03;;;1.50;;
22644;SDS011;11489;50.834;6.752;2023-07-31T13:44:31;1.95;;;1.60;;
22644;SDS011;11489;50.834;6.752;2023-07-31T13:46:58;1.67;;;1.50;;
22644;SDS011;11489;50.834;6.752;2023-07-31T13:49:25;2.45;;;1.67;;
22644;SDS011;11489;50.834;6.752;2023-07-31T13:51:50;1.95;;;1.58;;
22644;SDS011;11489;50.834;6.752;2023-07-31T13:54:16;2.25;;;1.55;;
22644;SDS011;11489;50.834;6.752;2023-07-31T13:56:42;3.40;;;1.55;;
22644;SDS011;11489;50.834;6.752;2023-07-31T13:59:08;2.05;;;1.50;;
22644;SDS011;11489;50.834;6.752;2023-07-31T14:01:33;1.95;;;1.42;;
22644;SDS011;11489;50.834;6.752;2023-07-31T14:03:59;1.80;;;1.55;;
22644;SDS011;11489;50.834;6.752;2023-07-31T14:06:25;1.90;;;1.50;;
22644;SDS011;11489;50.834;6.752;2023-07-31T14:08:50;2.38;;;1.83;;
22644;SDS011;11489;50.834;6.752;2023-07-31T14:11:16;2.85;;;1.50;;
22644;SDS011;11489;50.834;6.752;2023-07-31T14:13:42;2.45;;;1.80;;
22644;SDS011;11489;50.834;6.752;2023-07-31T14:16:07;2.33;;;2.00;;
22644;SDS011;11489;50.834;6.752;2023-07-31T14:18:33;2.72;;;2.15;;
22644;SDS011;11489;50.834;6.752;2023-07-31T14:20:59;2.38;;;1.92;;
22644;SDS011;11489;50.834;6.752;2023-07-31T14:23:24;3.00;;;2.25;;
22644;SDS011;11489;50.834;6.752;2023-07-31T14:25:50;3.03;;;2.20;;
22644;SDS011;11489;50.834;6.752;2023-07-31T14:28:16;3.13;;;2.28;;
22644;SDS011;11489;50.834;6.752;2023-07-31T14:30:41;2.88;;;2.15;;
22644;SDS011;11489;50.834;6.752;2023-07-31T14:33:07;5.65;;;2.40;;
22644;SDS011;11489;50.834;6.752;2023-07-31T14:35:33;2.70;;;2.15;;
22644;SDS011;11489;50.834;6.752;2023-07-31T14:38:00;2.85;;;2.30;;
22644;SDS011;11489;50.834;6.752;2023-07-31T14:40:27;2.95;;;2.25;;
22644;SDS011;11489;50.834;6.752;2023-07-31T14:42:52;2.70;;;2.30;;
22644;SDS011;11489;50.834;6.752;2023-07-31T14:45:18;3.35;;;2.38;;
22644;SDS011;11489;50.834;6.752;2023-07-31T14:47:44;3.15;;;2.60;;
22644;SDS011;11489;50.834;6.752;2023-07-31T14:50:09;3.33;;;2.42;;
22644;SDS011;11489;50.834;6.752;2023-07-31T14:52:35;3.78;;;2.33;;
22644;SDS011;11489;50.834;6.752;2023-07-31T14:55:01;3.45;;;2.63;;
22644;SDS011;11489;50.834;6.752;2023-07-31T14:57:27;3.97;;;2.78;;
22644;SDS011;11489;50.834;6.752;2023-07-31T14:59:52;3.17;;;2.42;;
22644;SDS011;11489;50.834;6.752;2023-07-31T15:02:18;3.78;;;2.83;;
22644;SDS011;11489;50.834;6.752;2023-07-31T15:04:44;3.35;;;2.70;;
22644;SDS011;11489;50.834;6.752;2023-07-31T15:07:09;3.17;;;2.45;;
22644;SDS011;11489;50.834;6.752;2023-07-31T15:09:35;3.20;;;2.60;;
22644;SDS011;11489;50.834;6.752;2023-07-31T15:12:01;3.33;;;2.42;;